createdAt,value
2022-08-08T00:02:03.035Z,2.43
2022-08-08T00:05:10.067Z,3.00
2022-08-08T00:08:06.782Z,2.73
2022-08-08T00:11:00.286Z,2.53
2022-08-08T00:14:15.016Z,2.70
2022-08-08T00:17:22.644Z,3.03
2022-08-08T00:20:14.638Z,2.83
2022-08-08T00:23:06.371Z,2.83
2022-08-08T00:26:00.345Z,2.80
2022-08-08T00:28:51.372Z,3.23
2022-08-08T00:32:20.086Z,2.90
2022-08-08T00:35:18.466Z,2.90
2022-08-08T00:38:31.437Z,2.90
2022-08-08T00:42:08.319Z,3.53
2022-08-08T00:45:21.795Z,3.63
2022-08-08T00:48:37.743Z,3.33
2022-08-08T00:51:48.756Z,2.57
2022-08-08T00:55:05.778Z,3.37
2022-08-08T00:58:31.862Z,3.17
2022-08-08T01:01:37.629Z,3.37
2022-08-08T01:04:47.354Z,3.20
2022-08-08T01:07:57.960Z,3.70
2022-08-08T01:11:08.018Z,4.53
2022-08-08T01:14:19.006Z,3.90
2022-08-08T01:17:53.795Z,3.47
2022-08-08T01:20:55.258Z,3.40
2022-08-08T01:24:06.403Z,3.33
2022-08-08T01:27:16.210Z,3.60
2022-08-08T01:30:25.205Z,3.60
2022-08-08T01:33:43.134Z,3.00
2022-08-08T01:36:57.495Z,3.60
2022-08-08T01:39:56.108Z,3.93
2022-08-08T01:42:50.399Z,3.77
2022-08-08T01:45:54.271Z,3.80
2022-08-08T01:48:48.898Z,3.80
2022-08-08T01:52:30.715Z,4.10
2022-08-08T01:55:25.980Z,3.47
2022-08-08T01:58:19.075Z,3.87
2022-08-08T02:01:28.132Z,3.17
2022-08-08T02:04:38.623Z,4.60
2022-08-08T02:07:41.874Z,8.97
2022-08-08T02:10:47.678Z,6.23
2022-08-08T02:13:54.714Z,5.13
2022-08-08T02:16:49.909Z,6.03
2022-08-08T02:20:07.160Z,5.27
2022-08-08T02:22:57.974Z,4.80
2022-08-08T02:25:50.076Z,4.80
2022-08-08T02:28:48.369Z,4.67
2022-08-08T02:31:59.401Z,4.07
2022-08-08T02:35:12.146Z,4.60
2022-08-08T02:38:25.431Z,4.20
2022-08-08T02:41:59.658Z,5.03
2022-08-08T02:44:58.809Z,4.70
2022-08-08T02:48:15.935Z,5.00
2022-08-08T02:51:21.030Z,5.10
2022-08-08T02:54:37.647Z,5.00
2022-08-08T02:57:51.305Z,4.60
2022-08-08T03:00:51.209Z,4.60
2022-08-08T03:05:03.008Z,4.97
2022-08-08T03:07:26.107Z,4.30
2022-08-08T03:10:44.240Z,5.57
2022-08-08T03:15:57.081Z,5.10
2022-08-08T03:17:08.736Z,5.40
2022-08-08T03:20:08.083Z,5.70
2022-08-08T03:23:00.578Z,4.90
2022-08-08T03:25:54.974Z,5.77
2022-08-08T03:28:45.463Z,5.30
2022-08-08T03:32:06.362Z,6.07
2022-08-08T03:34:56.344Z,5.50
2022-08-08T03:38:52.944Z,6.07
2022-08-08T03:40:56.724Z,6.70
2022-08-08T03:43:55.884Z,5.90
2022-08-08T03:46:49.395Z,6.20
2022-08-08T03:50:00.867Z,7.23
2022-08-08T03:52:48.957Z,6.63
2022-08-08T03:55:56.314Z,7.30
2022-08-08T03:58:51.415Z,6.57
2022-08-08T04:02:13.027Z,7.73
2022-08-08T04:04:49.814Z,6.77
2022-08-08T04:07:39.161Z,6.20
2022-08-08T04:10:32.206Z,8.07
2022-08-08T04:13:22.347Z,7.07
2022-08-08T04:16:13.708Z,8.40
2022-08-08T04:19:23.936Z,7.70
2022-08-08T04:22:14.380Z,8.13
2022-08-08T04:25:06.530Z,7.30
2022-08-08T04:28:02.800Z,7.17
2022-08-08T04:31:06.210Z,7.37
2022-08-08T04:33:59.699Z,7.83
2022-08-08T04:36:49.955Z,7.47
2022-08-08T04:40:03.763Z,7.63
2022-08-08T04:42:56.948Z,7.53
2022-08-08T04:45:46.856Z,6.97
2022-08-08T04:48:38.302Z,7.50
2022-08-08T04:51:48.480Z,7.67
2022-08-08T04:54:42.266Z,7.70
2022-08-08T04:57:31.580Z,7.73
2022-08-08T05:00:25.110Z,7.50
2022-08-08T05:03:19.066Z,6.70
2022-08-08T05:06:27.871Z,8.03
2022-08-08T05:09:19.672Z,8.20
2022-08-08T05:12:09.210Z,7.70
2022-08-08T05:14:58.451Z,7.07
2022-08-08T05:17:53.741Z,7.43
2022-08-08T05:20:50.436Z,7.43
2022-08-08T05:23:45.888Z,7.47
2022-08-08T05:26:36.464Z,6.90
2022-08-08T05:29:29.325Z,7.03
2022-08-08T05:32:18.365Z,6.13
2022-08-08T05:35:09.699Z,6.80
2022-08-08T05:38:02.149Z,7.70
2022-08-08T05:40:57.554Z,7.53
2022-08-08T05:44:03.247Z,7.70
2022-08-08T05:46:54.636Z,7.80
2022-08-08T05:49:53.993Z,7.97
2022-08-08T05:52:44.795Z,7.73
2022-08-08T05:56:11.313Z,5.13
2022-08-08T05:58:57.045Z,5.13
2022-08-08T06:01:58.055Z,5.37
2022-08-08T06:04:55.306Z,6.33
2022-08-08T06:07:46.081Z,7.20
2022-08-08T06:10:38.443Z,5.80
2022-08-08T06:13:30.132Z,5.37
2022-08-08T06:16:27.327Z,5.77
2022-08-08T06:19:24.066Z,5.67
2022-08-08T06:26:35.243Z,7.77
2022-08-08T06:28:32.749Z,5.20
2022-08-08T06:31:22.753Z,5.70
2022-08-08T06:34:36.767Z,5.23
2022-08-08T06:37:28.785Z,5.20
2022-08-08T06:40:27.208Z,5.10
2022-08-08T06:43:16.738Z,5.60
2022-08-08T06:46:08.657Z,5.53
2022-08-08T06:48:58.170Z,6.00
2022-08-08T06:51:57.814Z,5.70
2022-08-08T06:54:48.943Z,4.77
2022-08-08T06:57:44.126Z,5.07
2022-08-08T07:00:46.354Z,5.43
2022-08-08T07:03:51.905Z,5.10
2022-08-08T07:06:45.378Z,5.23
2022-08-08T07:09:41.714Z,4.67
2022-08-08T07:12:40.510Z,5.30
2022-08-08T07:16:03.606Z,4.97
2022-08-08T07:18:49.359Z,4.97
2022-08-08T07:21:41.239Z,4.47
2022-08-08T07:24:36.572Z,4.90
2022-08-08T07:27:46.871Z,5.03
2022-08-08T07:30:36.873Z,4.80
2022-08-08T07:33:26.268Z,5.13
2022-08-08T07:36:15.598Z,5.17
2022-08-08T07:39:05.118Z,5.22
2022-08-08T07:42:08.854Z,4.80
2022-08-08T07:45:02.051Z,5.25
2022-08-08T07:47:52.577Z,5.60
2022-08-08T07:50:41.513Z,5.15
2022-08-08T07:54:01.022Z,5.78
2022-08-08T07:56:47.103Z,5.07
2022-08-08T07:59:52.804Z,5.43
2022-08-08T08:02:45.069Z,5.60
2022-08-08T08:05:38.316Z,6.28
2022-08-08T08:08:33.366Z,5.88
2022-08-08T08:11:23.354Z,5.57
2022-08-08T08:14:12.534Z,5.82
2022-08-08T08:17:04.142Z,5.43
2022-08-08T08:19:59.693Z,5.88
2022-08-08T08:22:48.578Z,5.10
2022-08-08T08:25:45.308Z,5.10
2022-08-08T08:28:41.234Z,5.18
2022-08-08T08:31:30.426Z,5.65
2022-08-08T08:34:32.180Z,4.90
2022-08-08T08:37:25.862Z,6.07
2022-08-08T08:40:18.997Z,4.93
2022-08-08T08:43:15.325Z,5.18
2022-08-08T08:46:09.331Z,5.90
2022-08-08T08:48:59.121Z,4.90
2022-08-08T08:51:51.462Z,5.00
2022-08-08T08:54:42.858Z,4.95
2022-08-08T08:57:34.418Z,4.38
2022-08-08T09:00:24.833Z,4.53
2022-08-08T09:03:14.717Z,5.55
2022-08-08T09:06:26.496Z,4.95
2022-08-08T09:09:26.242Z,4.88
2022-08-08T09:12:28.993Z,4.50
2022-08-08T09:15:41.398Z,4.80
2022-08-08T09:18:28.309Z,4.70
2022-08-08T09:22:05.352Z,4.30
2022-08-08T09:24:27.621Z,4.28
2022-08-08T09:27:21.212Z,3.60
2022-08-08T09:30:17.577Z,4.60
2022-08-08T09:33:54.527Z,4.68
2022-08-08T09:36:23.124Z,4.15
2022-08-08T09:39:15.690Z,4.05
2022-08-08T09:42:20.267Z,3.90
2022-08-08T09:45:20.598Z,4.53
2022-08-08T09:48:35.073Z,3.97
2022-08-08T09:51:28.645Z,3.92
2022-08-08T09:54:36.536Z,3.00
2022-08-08T09:57:35.026Z,4.05
2022-08-08T10:00:53.595Z,3.70
2022-08-08T10:03:55.734Z,3.95
2022-08-08T10:06:52.851Z,3.15
2022-08-08T10:09:59.146Z,3.10
2022-08-08T10:12:53.768Z,3.00
2022-08-08T10:16:00.733Z,3.03
2022-08-08T10:18:51.704Z,3.03
2022-08-08T10:21:51.014Z,3.20
2022-08-08T10:24:47.439Z,3.80
2022-08-08T10:27:42.626Z,3.88
2022-08-08T10:30:57.409Z,3.25
2022-08-08T10:34:19.045Z,2.97
2022-08-08T10:36:51.586Z,3.20
2022-08-08T10:39:53.881Z,2.95
2022-08-08T10:42:44.947Z,2.80
2022-08-08T10:45:56.710Z,3.00
2022-08-08T10:48:58.382Z,3.17
2022-08-08T10:51:51.505Z,2.90
2022-08-08T10:54:41.418Z,3.22
2022-08-08T10:57:49.614Z,3.50
2022-08-08T11:00:53.239Z,4.22
2022-08-08T11:04:01.952Z,3.05
2022-08-08T11:07:00.248Z,2.88
2022-08-08T11:09:48.920Z,3.47
2022-08-08T11:12:46.918Z,3.58
2022-08-08T11:15:52.246Z,3.15
2022-08-08T11:18:48.812Z,2.83
2022-08-08T11:21:55.500Z,2.75
2022-08-08T11:24:49.511Z,2.83
2022-08-08T11:27:39.115Z,2.80
2022-08-08T11:30:34.646Z,2.90
2022-08-08T11:33:50.959Z,2.97
2022-08-08T11:36:42.256Z,3.53
2022-08-08T11:39:36.872Z,2.72
2022-08-08T11:42:30.614Z,2.42
2022-08-08T11:45:23.065Z,2.88
2022-08-08T11:48:13.085Z,3.55
2022-08-08T11:51:29.927Z,3.35
2022-08-08T11:54:33.644Z,3.47
2022-08-08T11:57:27.560Z,2.88
2022-08-08T12:00:18.911Z,3.63
2022-08-08T12:03:16.887Z,3.25
2022-08-08T12:06:13.981Z,2.67
2022-08-08T12:09:07.771Z,3.03
2022-08-08T12:11:58.055Z,2.97
2022-08-08T12:14:54.618Z,3.03
2022-08-08T12:17:50.920Z,2.70
2022-08-08T12:20:40.671Z,4.03
2022-08-08T12:23:42.910Z,3.15
2022-08-08T12:26:42.030Z,2.75
2022-08-08T12:29:42.421Z,3.00
2022-08-08T12:32:43.548Z,2.78
2022-08-08T12:35:40.845Z,2.50
2022-08-08T12:38:49.827Z,2.75
2022-08-08T12:41:57.270Z,2.88
2022-08-08T12:45:03.548Z,2.53
2022-08-08T12:48:36.923Z,2.33
2022-08-08T12:51:39.592Z,2.75
2022-08-08T12:54:33.091Z,2.53
2022-08-08T12:57:26.145Z,2.97
2022-08-08T13:00:34.090Z,2.80
2022-08-08T13:03:33.565Z,2.40
2022-08-08T13:06:22.981Z,2.38
2022-08-08T13:09:17.334Z,3.13
2022-08-08T13:12:24.705Z,2.42
2022-08-08T13:15:22.246Z,2.83
2022-08-08T13:18:14.084Z,2.80
2022-08-08T13:21:14.883Z,2.60
2022-08-08T13:24:08.517Z,3.00
2022-08-08T13:27:11.773Z,2.80
2022-08-08T13:30:03.306Z,2.50
2022-08-08T13:32:56.469Z,2.75
2022-08-08T13:35:50.719Z,3.03
2022-08-08T13:38:40.137Z,2.83
2022-08-08T13:41:38.876Z,2.65
2022-08-08T13:44:29.828Z,2.75
2022-08-08T13:47:20.410Z,3.05
2022-08-08T13:50:38.820Z,2.60
2022-08-08T13:53:34.145Z,2.90
2022-08-08T13:56:44.925Z,2.50
2022-08-08T13:59:48.113Z,2.80
2022-08-08T14:02:41.122Z,2.67
2022-08-08T14:05:34.496Z,2.63
2022-08-08T14:08:30.352Z,2.38
2022-08-08T14:11:25.259Z,2.30
2022-08-08T14:14:14.176Z,2.55
2022-08-08T14:17:22.021Z,2.95
2022-08-08T14:20:15.484Z,2.40
2022-08-08T14:24:03.929Z,2.50
2022-08-08T14:26:38.190Z,2.72
2022-08-08T14:29:30.209Z,2.00
2022-08-08T14:32:29.602Z,2.35
2022-08-08T14:35:28.285Z,2.58
2022-08-08T14:38:33.948Z,2.67
2022-08-08T14:41:45.179Z,2.58
2022-08-08T14:44:35.549Z,2.92
2022-08-08T14:47:36.050Z,3.17
2022-08-08T14:50:39.196Z,2.50
2022-08-08T14:53:37.368Z,2.72
2022-08-08T14:56:44.464Z,2.85
2022-08-08T14:59:44.321Z,2.88
2022-08-08T15:02:58.733Z,3.10
2022-08-08T15:05:54.224Z,2.58
2022-08-08T15:08:54.687Z,2.65
2022-08-08T15:11:46.464Z,2.15
2022-08-08T15:14:41.721Z,2.80
2022-08-08T15:17:30.704Z,2.67
2022-08-08T15:20:20.133Z,2.38
2022-08-08T15:23:09.147Z,2.42
2022-08-08T15:25:59.428Z,2.40
2022-08-08T15:28:52.967Z,2.30
2022-08-08T15:32:17.243Z,2.72
2022-08-08T15:34:52.310Z,2.88
2022-08-08T15:37:41.691Z,2.13
2022-08-08T15:40:30.861Z,2.75
2022-08-08T15:43:34.965Z,2.33
2022-08-08T15:46:27.313Z,2.78
2022-08-08T15:49:24.413Z,1.98
2022-08-08T15:52:17.585Z,2.20
2022-08-08T15:55:09.152Z,2.78
2022-08-08T15:58:00.724Z,2.20
2022-08-08T16:00:52.263Z,1.63
2022-08-08T16:03:42.536Z,2.40
2022-08-08T16:06:35.151Z,2.45
2022-08-08T16:13:03.452Z,1.80
2022-08-08T16:13:27.174Z,2.00
2022-08-08T16:15:58.832Z,1.75
2022-08-08T16:18:57.940Z,2.03
2022-08-08T16:21:49.179Z,2.08
2022-08-08T16:24:42.807Z,2.30
2022-08-08T16:27:33.064Z,2.27
2022-08-08T16:30:36.337Z,1.90
2022-08-08T16:33:29.592Z,2.00
2022-08-08T16:36:33.314Z,1.73
2022-08-08T16:39:59.898Z,2.37
2022-08-08T16:42:34.783Z,2.23
2022-08-08T16:46:36.416Z,2.00
2022-08-08T16:48:37.021Z,2.33
2022-08-08T16:55:03.236Z,1.90
2022-08-08T16:55:06.599Z,2.50
2022-08-08T16:58:15.252Z,2.13
2022-08-08T17:00:54.618Z,2.27
2022-08-08T17:04:00.310Z,1.80
2022-08-08T17:06:50.735Z,2.00
2022-08-08T17:09:45.009Z,1.80
2022-08-08T17:12:36.559Z,2.60
2022-08-08T17:15:26.661Z,2.23
2022-08-08T17:18:24.998Z,2.10
2022-08-08T17:21:14.164Z,2.83
2022-08-08T17:24:10.467Z,1.93
2022-08-08T17:27:10.937Z,2.43
2022-08-08T17:30:02.059Z,2.17
2022-08-08T17:34:37.727Z,1.90
2022-08-08T17:36:12.617Z,2.20
2022-08-08T17:39:45.957Z,2.07
2022-08-08T17:42:22.224Z,2.10
2022-08-08T17:45:14.156Z,1.80
2022-08-08T17:48:15.040Z,2.20
2022-08-08T17:51:20.247Z,2.63
2022-08-08T17:54:22.046Z,2.57
2022-08-08T17:57:14.865Z,2.50
2022-08-08T18:00:13.215Z,2.23
2022-08-08T18:03:12.254Z,2.00
2022-08-08T18:06:03.428Z,2.87
2022-08-08T18:09:09.630Z,2.03
2022-08-08T18:12:01.358Z,2.57
2022-08-08T18:14:51.834Z,2.27
2022-08-08T18:18:09.165Z,1.80
2022-08-08T18:20:59.232Z,2.27
2022-08-08T18:23:55.787Z,1.90
2022-08-08T18:26:53.365Z,1.90
2022-08-08T18:29:44.231Z,1.90
2022-08-08T18:32:33.234Z,2.40
2022-08-08T18:35:23.634Z,2.03
2022-08-08T18:38:16.964Z,2.33
2022-08-08T18:41:06.499Z,2.00
2022-08-08T18:43:55.701Z,2.20
2022-08-08T18:46:57.312Z,2.20
2022-08-08T18:49:57.671Z,2.23
2022-08-08T18:52:51.842Z,2.40
2022-08-08T18:55:44.034Z,2.10
2022-08-08T18:58:35.583Z,1.87
2022-08-08T19:02:26.572Z,2.57
2022-08-08T19:04:35.570Z,2.17
2022-08-08T19:07:29.686Z,2.50
2022-08-08T19:10:20.645Z,2.33
2022-08-08T19:13:21.428Z,2.33
2022-08-08T19:16:18.715Z,2.87
2022-08-08T19:19:13.303Z,2.43
2022-08-08T19:22:02.899Z,2.87
2022-08-08T19:26:01.341Z,2.10
2022-08-08T19:28:03.774Z,2.23
2022-08-08T19:31:09.327Z,2.23
2022-08-08T19:34:30.288Z,2.27
2022-08-08T19:37:07.675Z,2.23
2022-08-08T19:40:05.402Z,2.10
2022-08-08T19:42:55.529Z,1.63
2022-08-08T19:45:59.880Z,2.23
2022-08-08T19:48:51.054Z,2.77
2022-08-08T19:51:43.391Z,2.33
2022-08-08T19:54:35.686Z,2.00
2022-08-08T19:57:27.905Z,2.20
2022-08-08T20:00:29.165Z,2.43
2022-08-08T20:04:01.836Z,2.13
2022-08-08T20:06:32.638Z,1.97
2022-08-08T20:09:24.109Z,2.10
2022-08-08T20:12:15.311Z,2.17
2022-08-08T20:15:21.964Z,2.30
2022-08-08T20:18:15.559Z,1.80
2022-08-08T20:21:06.961Z,2.40
2022-08-08T20:23:59.960Z,2.40
2022-08-08T20:26:50.600Z,2.00
2022-08-08T20:29:55.287Z,1.93
2022-08-08T20:32:50.102Z,1.83
2022-08-08T20:35:58.215Z,1.90
2022-08-08T20:38:53.785Z,2.30
2022-08-08T20:41:48.944Z,1.77
2022-08-08T20:44:41.476Z,2.50
2022-08-08T20:47:36.014Z,2.20
2022-08-08T20:50:26.015Z,2.00
2022-08-08T20:53:59.232Z,2.10
2022-08-08T20:56:35.502Z,1.73
2022-08-08T20:59:25.759Z,2.20
2022-08-08T21:02:19.741Z,2.90
2022-08-08T21:05:14.856Z,2.10
2022-08-08T21:08:37.396Z,1.80
2022-08-08T21:11:15.608Z,1.90
2022-08-08T21:14:07.410Z,2.00
2022-08-08T21:16:56.936Z,2.10
2022-08-08T21:19:47.245Z,2.07
2022-08-08T21:22:36.870Z,2.20
2022-08-08T21:25:26.980Z,2.20
2022-08-08T21:28:35.761Z,1.80
2022-08-08T21:31:26.518Z,1.80
2022-08-08T21:34:35.845Z,1.93
2022-08-08T21:37:53.758Z,1.70
2022-08-08T21:40:33.832Z,1.70
2022-08-08T21:43:22.754Z,1.97
2022-08-08T21:48:04.360Z,1.90
2022-08-08T21:49:23.139Z,2.37
2022-08-08T21:54:32.493Z,2.00
2022-08-08T21:56:26.485Z,1.80
2022-08-08T21:58:37.392Z,2.30
2022-08-08T22:01:40.379Z,1.60
2022-08-08T22:04:31.615Z,2.23
2022-08-08T22:07:20.493Z,1.90
2022-08-08T22:10:28.466Z,1.60
2022-08-08T22:13:21.733Z,2.13
2022-08-08T22:16:11.028Z,1.70
2022-08-08T22:19:00.016Z,2.23
2022-08-08T22:21:59.433Z,1.90
2022-08-08T22:24:49.919Z,2.00
2022-08-08T22:28:02.693Z,2.10
2022-08-08T22:30:52.935Z,2.07
2022-08-08T22:34:13.911Z,2.00
2022-08-08T22:36:54.940Z,2.20
2022-08-08T22:40:00.255Z,1.93
2022-08-08T22:42:49.626Z,2.00
2022-08-08T22:45:38.809Z,1.67
2022-08-08T22:48:27.953Z,1.80
2022-08-08T22:51:17.425Z,1.93
2022-08-08T22:54:31.951Z,1.60
2022-08-08T22:57:18.186Z,2.40
2022-08-08T23:00:10.403Z,2.37
2022-08-08T23:03:03.646Z,2.33
2022-08-08T23:05:52.930Z,2.30
2022-08-08T23:08:55.220Z,1.97
2022-08-08T23:12:18.867Z,2.27
2022-08-08T23:14:59.868Z,2.43
2022-08-08T23:17:59.878Z,1.93
2022-08-08T23:20:54.536Z,2.37
2022-08-08T23:23:48.735Z,2.00
2022-08-08T23:26:53.493Z,1.90
2022-08-08T23:29:56.094Z,2.50
2022-08-08T23:32:46.623Z,2.50
2022-08-08T23:36:06.723Z,2.20
2022-08-08T23:38:51.821Z,2.47
2022-08-08T23:41:46.906Z,2.13
2022-08-08T23:44:36.881Z,2.27
2022-08-08T23:49:03.215Z,2.57
2022-08-08T23:50:38.511Z,2.30
2022-08-08T23:54:04.973Z,2.70
2022-08-08T23:56:36.507Z,2.57
2022-08-08T23:59:25.726Z,2.40
